This is the latest recevied weather packets stored in our database for station/object HB9CJD-1. If no packets are shown the sender has not sent any weather packets the latest 10 day(s).
| Time | Temp. | Humidity | Pressure | Rain* | Wind** | Luminosity | Snow |
|---|---|---|---|---|---|---|---|
| 1777299603 | 25° C | 25% | 1019.6 hPa | - | - | - | - |
| 1777299603 | 25° C | 25% | 1019.6 hPa | - | - | - | - |
| 1777299000 | 25° C | 20% | 1019.7 hPa | - | - | - | - |
| 1777299000 | 25° C | 20% | 1019.7 hPa | - | - | - | - |
| 1777298397 | 25° C | 24% | 1019.8 hPa | - | - | - | - |
| 1777297794 | 24.44° C | 25% | 1020 hPa | - | - | - | - |
| 1777295381 | 23.33° C | 22% | 1020.3 hPa | - | - | - | - |
| 1777295380 | 23.33° C | 22% | 1020.3 hPa | - | - | - | - |
| 1777294174 | 23.33° C | 26% | 1020.5 hPa | - | - | - | - |
| 1777292968 | 23.89° C | 31% | 1020.5 hPa | - | - | - | - |
| 1777292968 | 23.89° C | 31% | 1020.5 hPa | - | - | - | - |
| 1777292364 | 22.78° C | 31% | 1020.7 hPa | - | - | - | - |
| 1777292364 | 22.78° C | 31% | 1020.7 hPa | - | - | - | - |
| 1777291761 | 22.78° C | 31% | 1020.7 hPa | - | - | - | - |
| 1777291761 | 22.78° C | 31% | 1020.7 hPa | - | - | - | - |
| 1777291158 | 22.78° C | 29% | 1020.8 hPa | - | - | - | - |
| 1777290554 | 22.22° C | 31% | 1020.9 hPa | - | - | - | - |
| 1777289348 | 21.67° C | 32% | 1021.1 hPa | - | - | - | - |
| 1777289348 | 21.67° C | 32% | 1021.1 hPa | - | - | - | - |
| 1777288745 | 21.67° C | 33% | 1021 hPa | - | - | - | - |
| 1777288745 | 21.67° C | 33% | 1021 hPa | - | - | - | - |
| 1777288142 | 21.11° C | 36% | 1021.2 hPa | - | - | - | - |
| 1777288141 | 21.11° C | 36% | 1021.2 hPa | - | - | - | - |
| 1777286935 | 20.56° C | 33% | 1021.3 hPa | - | - | - | - |
| 1777286935 | 20.56° C | 33% | 1021.3 hPa | - | - | - | - |
* Rain since midnight (hover to see other rain measurements)
** Current wind speed in m/s (hover to see current wind gust speed)